createdAt,value
2019-05-28T00:01:12.641Z,5.70
2019-05-28T00:03:40.932Z,5.60
2019-05-28T00:06:09.247Z,5.83
2019-05-28T00:08:37.508Z,5.37
2019-05-28T00:11:05.784Z,5.73
2019-05-28T00:13:34.045Z,4.97
2019-05-28T00:16:02.303Z,6.50
2019-05-28T00:18:31.078Z,5.70
2019-05-28T00:20:59.408Z,6.30
2019-05-28T00:23:27.674Z,6.40
2019-05-28T00:25:56.037Z,5.93
2019-05-28T00:28:24.370Z,6.03
2019-05-28T00:30:52.643Z,7.00
2019-05-28T00:33:21.036Z,6.37
2019-05-28T00:35:49.304Z,7.27
2019-05-28T00:38:17.559Z,7.30
2019-05-28T00:40:45.836Z,7.20
2019-05-28T00:43:14.421Z,7.67
2019-05-28T00:45:42.680Z,6.70
2019-05-28T00:48:10.959Z,7.37
2019-05-28T00:50:39.224Z,6.77
2019-05-28T00:53:09.112Z,8.20
2019-05-28T00:55:37.480Z,7.00
2019-05-28T00:58:05.744Z,7.13
2019-05-28T01:00:48.387Z,6.50
2019-05-28T01:03:16.807Z,6.90
2019-05-28T01:05:45.245Z,7.00
2019-05-28T01:08:14.479Z,6.17
2019-05-28T01:10:43.982Z,6.27
2019-05-28T01:13:12.333Z,5.67
2019-05-28T01:15:40.619Z,5.90
2019-05-28T01:18:08.893Z,6.17
2019-05-28T01:20:37.211Z,7.00
2019-05-28T01:23:05.496Z,6.83
2019-05-28T01:25:34.551Z,6.30
2019-05-28T01:28:03.797Z,5.63
2019-05-28T01:30:32.085Z,5.97
2019-05-28T01:33:00.358Z,6.00
2019-05-28T01:35:28.698Z,7.00
2019-05-28T01:37:57.143Z,5.97
2019-05-28T01:40:25.533Z,6.30
2019-05-28T01:42:53.854Z,6.53
2019-05-28T01:45:22.140Z,6.57
2019-05-28T01:47:50.519Z,7.20
2019-05-28T01:50:18.784Z,7.10
2019-05-28T01:52:47.057Z,6.70
2019-05-28T01:55:15.315Z,7.57
2019-05-28T01:57:43.571Z,7.63
2019-05-28T02:00:11.852Z,8.30
2019-05-28T02:02:40.137Z,8.80
2019-05-28T02:05:08.447Z,8.37
2019-05-28T02:07:36.723Z,8.70
2019-05-28T02:10:06.329Z,9.30
2019-05-28T02:12:34.579Z,8.90
2019-05-28T02:15:02.923Z,9.40
2019-05-28T02:17:31.224Z,10.00
2019-05-28T02:19:59.495Z,8.73
2019-05-28T02:22:27.775Z,10.10
2019-05-28T02:24:57.625Z,8.73
2019-05-28T02:27:25.965Z,8.63
2019-05-28T02:29:54.260Z,9.53
2019-05-28T02:32:22.523Z,9.73
2019-05-28T02:34:50.783Z,8.90
2019-05-28T02:37:19.053Z,9.83
2019-05-28T02:39:47.397Z,9.23
2019-05-28T02:42:15.736Z,9.17
2019-05-28T02:44:44.095Z,9.37
2019-05-28T02:47:12.360Z,9.27
2019-05-28T02:49:40.615Z,8.97
2019-05-28T02:52:08.890Z,9.33
2019-05-28T02:54:37.152Z,8.70
2019-05-28T02:57:05.704Z,8.23
2019-05-28T02:59:33.970Z,9.17
2019-05-28T03:02:02.251Z,8.50
2019-05-28T03:04:30.973Z,8.20
2019-05-28T03:06:59.800Z,7.77
2019-05-28T03:09:28.062Z,8.40
2019-05-28T03:11:57.956Z,7.40
2019-05-28T03:14:26.233Z,7.43
2019-05-28T03:16:55.943Z,7.57
2019-05-28T03:19:24.297Z,7.87
2019-05-28T03:21:52.636Z,7.63
2019-05-28T03:24:20.901Z,7.80
2019-05-28T03:26:49.168Z,8.07
2019-05-28T03:29:17.535Z,8.70
2019-05-28T03:32:05.894Z,9.73
2019-05-28T03:34:15.923Z,10.83
2019-05-28T03:36:44.621Z,11.07
2019-05-28T03:39:12.887Z,11.43
2019-05-28T03:41:41.143Z,11.03
2019-05-28T03:44:09.519Z,10.93
2019-05-28T03:46:37.779Z,11.43
2019-05-28T03:49:06.136Z,11.87
2019-05-28T03:51:34.510Z,12.27
2019-05-28T03:54:02.778Z,13.13
2019-05-28T03:56:31.037Z,12.97
2019-05-28T03:58:59.343Z,13.07
2019-05-28T04:01:27.665Z,12.87
2019-05-28T04:03:55.981Z,14.37
2019-05-28T04:06:24.304Z,15.50
2019-05-28T04:08:52.563Z,14.83
2019-05-28T04:11:21.178Z,13.87
2019-05-28T04:13:49.468Z,14.90
2019-05-28T04:16:17.731Z,16.33
2019-05-28T04:18:46.085Z,15.30
2019-05-28T04:21:14.437Z,15.63
2019-05-28T04:23:42.699Z,16.97
2019-05-28T04:26:11.042Z,18.20
2019-05-28T04:28:39.324Z,18.07
2019-05-28T04:31:07.688Z,19.20
2019-05-28T04:33:35.959Z,18.93
2019-05-28T04:36:05.161Z,19.80
2019-05-28T04:38:33.418Z,19.33
2019-05-28T04:41:01.756Z,20.47
2019-05-28T04:43:30.068Z,19.67
2019-05-28T04:45:58.350Z,20.50
2019-05-28T04:48:33.689Z,18.17
2019-05-28T04:51:02.664Z,15.50
2019-05-28T04:53:30.928Z,13.50
2019-05-28T04:55:59.197Z,11.57
2019-05-28T04:58:27.482Z,11.67
2019-05-28T05:00:55.763Z,9.67
2019-05-28T05:03:24.032Z,7.93
2019-05-28T05:05:52.331Z,8.77
2019-05-28T05:08:20.600Z,7.13
2019-05-28T05:10:48.963Z,8.07
2019-05-28T05:13:17.240Z,7.93
2019-05-28T05:15:47.269Z,7.27
2019-05-28T05:18:15.480Z,6.40
2019-05-28T05:20:43.752Z,6.00
2019-05-28T05:23:12.274Z,7.17
2019-05-28T05:25:40.541Z,6.07
2019-05-28T05:28:08.820Z,6.77
2019-05-28T05:30:37.078Z,6.00
2019-05-28T05:33:19.151Z,7.30
2019-05-28T05:35:35.338Z,6.93
2019-05-28T05:38:03.596Z,6.13
2019-05-28T05:40:31.864Z,6.27
2019-05-28T05:43:00.152Z,6.20
2019-05-28T05:45:28.408Z,5.50
2019-05-28T05:47:56.840Z,5.60
2019-05-28T05:50:25.118Z,4.07
2019-05-28T05:52:53.468Z,4.07
2019-05-28T05:55:21.724Z,4.10
2019-05-28T05:57:50.032Z,4.50
2019-05-28T06:00:18.365Z,4.13
2019-05-28T06:02:46.775Z,4.47
2019-05-28T06:05:15.052Z,4.00
2019-05-28T06:07:43.362Z,3.00
2019-05-28T06:10:11.674Z,3.23
2019-05-28T06:12:39.952Z,3.50
2019-05-28T06:15:09.089Z,3.40
2019-05-28T06:17:37.342Z,3.07
2019-05-28T06:20:07.960Z,3.57
2019-05-28T06:22:36.218Z,4.80
2019-05-28T06:25:05.731Z,3.70
2019-05-28T06:27:34.056Z,4.57
2019-05-28T06:30:02.312Z,4.80
2019-05-28T06:32:33.227Z,4.67
2019-05-28T06:35:00.564Z,4.67
2019-05-28T06:37:28.842Z,5.10
2019-05-28T06:39:57.160Z,5.30
2019-05-28T06:42:25.439Z,6.53
2019-05-28T06:44:53.718Z,6.53
2019-05-28T06:47:22.037Z,7.83
2019-05-28T06:49:50.312Z,8.50
2019-05-28T06:52:18.567Z,8.17
2019-05-28T06:54:46.824Z,8.50
2019-05-28T06:57:22.675Z,9.70
2019-05-28T06:59:45.087Z,10.23
2019-05-28T07:02:13.660Z,10.03
2019-05-28T07:04:41.936Z,9.67
2019-05-28T07:07:11.347Z,9.57
2019-05-28T07:09:39.675Z,10.90
2019-05-28T07:12:08.084Z,10.93
2019-05-28T07:14:37.979Z,9.80
2019-05-28T07:17:06.248Z,7.83
2019-05-28T07:19:34.554Z,8.93
2019-05-28T07:22:03.735Z,8.20
2019-05-28T07:24:31.988Z,7.30
2019-05-28T07:27:00.260Z,7.87
2019-05-28T07:29:28.532Z,8.27
2019-05-28T07:31:56.789Z,9.17
2019-05-28T07:34:30.613Z,8.80
2019-05-28T07:36:55.053Z,7.90
2019-05-28T07:39:23.316Z,7.03
2019-05-28T07:41:51.631Z,6.70
2019-05-28T07:44:19.959Z,6.73
2019-05-28T07:46:48.220Z,7.80
2019-05-28T07:49:16.574Z,5.37
2019-05-28T07:51:44.992Z,5.50
2019-05-28T07:54:13.540Z,3.50
2019-05-28T07:56:41.825Z,2.90
2019-05-28T07:59:10.092Z,2.87
2019-05-28T08:01:38.354Z,2.83
2019-05-28T08:04:06.648Z,2.70
2019-05-28T08:06:34.964Z,3.20
2019-05-28T08:09:04.164Z,3.53
2019-05-28T08:11:32.437Z,4.13
2019-05-28T08:14:00.691Z,3.30
2019-05-28T08:16:28.944Z,4.00
2019-05-28T08:18:57.220Z,4.30
2019-05-28T08:21:25.535Z,4.23
2019-05-28T08:23:53.787Z,4.00
2019-05-28T08:26:22.064Z,4.50
2019-05-28T08:28:50.320Z,4.50
2019-05-28T08:31:21.099Z,4.07
2019-05-28T08:33:48.572Z,4.70
2019-05-28T08:36:16.915Z,4.93
2019-05-28T08:38:45.172Z,3.87
2019-05-28T08:41:13.527Z,5.60
2019-05-28T08:43:41.788Z,5.00
2019-05-28T08:46:10.220Z,4.80
2019-05-28T08:48:38.576Z,4.70
2019-05-28T08:51:10.065Z,3.07
2019-05-28T08:53:36.804Z,3.70
2019-05-28T08:56:05.176Z,3.60
2019-05-28T08:58:33.435Z,4.17
2019-05-28T09:01:01.808Z,4.10
2019-05-28T09:03:30.451Z,4.15
2019-05-28T09:05:58.716Z,3.83
2019-05-28T09:08:38.614Z,4.23
2019-05-28T09:10:56.972Z,3.43
2019-05-28T09:13:25.251Z,4.33
2019-05-28T09:15:53.580Z,3.90
2019-05-28T09:18:21.864Z,4.33
2019-05-28T09:20:50.140Z,3.60
2019-05-28T09:23:18.448Z,3.57
2019-05-28T09:25:46.724Z,4.60
2019-05-28T09:28:29.210Z,3.97
2019-05-28T09:30:44.950Z,4.27
2019-05-28T09:33:13.252Z,4.90
2019-05-28T09:35:46.573Z,3.90
2019-05-28T09:38:12.523Z,4.30
2019-05-28T09:40:49.927Z,4.67
2019-05-28T09:43:10.847Z,4.37
2019-05-28T09:45:39.100Z,3.70
2019-05-28T09:48:07.398Z,3.97
2019-05-28T09:50:35.651Z,3.53
2019-05-28T09:53:03.908Z,3.07
2019-05-28T09:55:32.190Z,2.70
2019-05-28T09:58:00.543Z,2.70
2019-05-28T10:00:28.869Z,2.97
2019-05-28T10:02:57.375Z,3.40
2019-05-28T10:05:25.624Z,2.50
2019-05-28T10:07:53.968Z,3.50
2019-05-28T10:10:22.912Z,3.70
2019-05-28T10:12:51.272Z,3.10
2019-05-28T10:15:19.966Z,2.80
2019-05-28T10:17:48.335Z,3.53
2019-05-28T10:20:16.749Z,3.10
2019-05-28T10:22:45.021Z,3.90
2019-05-28T10:25:13.293Z,3.07
2019-05-28T10:27:59.456Z,3.77
2019-05-28T10:30:13.151Z,3.70
2019-05-28T10:32:41.513Z,3.80
2019-05-28T10:35:09.769Z,5.10
2019-05-28T10:37:38.027Z,3.70
2019-05-28T10:40:09.718Z,3.87
2019-05-28T10:42:38.049Z,4.43
2019-05-28T10:45:07.841Z,3.83
2019-05-28T10:47:36.116Z,3.97
2019-05-28T10:50:06.524Z,4.50
2019-05-28T10:52:35.164Z,4.47
2019-05-28T10:55:06.683Z,3.90
2019-05-28T10:57:34.947Z,3.83
2019-05-28T11:00:04.973Z,4.23
2019-05-28T11:02:33.314Z,4.50
2019-05-28T11:05:01.593Z,4.33
2019-05-28T11:07:30.245Z,4.30
2019-05-28T11:09:58.527Z,5.03
2019-05-28T11:12:26.772Z,5.87
2019-05-28T11:14:55.064Z,5.73
2019-05-28T11:17:23.658Z,4.97
2019-05-28T11:19:51.915Z,4.33
2019-05-28T11:22:20.163Z,4.47
2019-05-28T11:24:48.452Z,4.40
2019-05-28T11:27:16.808Z,4.87
2019-05-28T11:29:45.084Z,4.60
2019-05-28T11:32:13.438Z,3.90
2019-05-28T11:34:41.710Z,6.33
2019-05-28T11:37:10.365Z,5.10
2019-05-28T11:39:38.974Z,4.10
2019-05-28T11:42:07.323Z,4.60
2019-05-28T11:44:35.581Z,5.03
2019-05-28T11:47:03.916Z,4.40
2019-05-28T11:49:32.219Z,4.47
2019-05-28T11:52:00.489Z,4.40
2019-05-28T11:54:28.808Z,5.60
2019-05-28T11:56:57.194Z,4.13
2019-05-28T11:59:25.553Z,3.97
2019-05-28T12:01:53.832Z,3.70
2019-05-28T12:04:22.102Z,4.50
2019-05-28T12:06:50.459Z,5.67
2019-05-28T12:09:19.068Z,4.00
2019-05-28T12:11:48.343Z,4.10
2019-05-28T12:14:16.598Z,3.80
2019-05-28T12:16:44.894Z,4.00
2019-05-28T12:19:13.174Z,3.80
2019-05-28T12:21:41.428Z,4.07
2019-05-28T12:24:09.789Z,3.40
2019-05-28T12:26:38.064Z,2.70
2019-05-28T12:29:06.470Z,2.80
2019-05-28T12:31:34.915Z,2.63
2019-05-28T12:34:04.952Z,2.93
2019-05-28T12:36:33.209Z,2.47
2019-05-28T12:39:01.481Z,2.50
2019-05-28T12:41:29.817Z,2.37
2019-05-28T12:43:58.075Z,2.60
2019-05-28T12:46:26.344Z,2.30
2019-05-28T12:48:54.602Z,2.70
2019-05-28T12:51:22.853Z,2.03
2019-05-28T12:53:51.671Z,2.53
2019-05-28T12:56:20.168Z,3.70
2019-05-28T12:58:48.419Z,3.20
2019-05-28T13:01:17.280Z,3.17
2019-05-28T13:03:45.604Z,2.80
2019-05-28T13:06:13.959Z,2.63
2019-05-28T13:08:42.227Z,2.97
2019-05-28T13:11:10.576Z,3.30
2019-05-28T13:13:39.686Z,3.53
2019-05-28T13:16:07.989Z,3.03
2019-05-28T13:18:36.252Z,2.70
2019-05-28T13:21:04.509Z,3.20
2019-05-28T13:23:32.876Z,2.87
2019-05-28T13:26:01.133Z,3.17
2019-05-28T13:28:29.405Z,3.57
2019-05-28T13:30:57.801Z,3.33
2019-05-28T13:33:26.362Z,3.90
2019-05-28T13:35:54.728Z,3.17
2019-05-28T13:38:26.858Z,2.63
2019-05-28T13:40:53.017Z,3.17
2019-05-28T13:43:21.269Z,2.70
2019-05-28T13:45:49.544Z,2.93
2019-05-28T13:48:17.867Z,2.83
2019-05-28T13:50:46.209Z,2.80
2019-05-28T13:53:14.495Z,3.10
2019-05-28T13:55:42.756Z,3.00
2019-05-28T13:58:11.017Z,3.57
2019-05-28T14:00:39.395Z,2.90
2019-05-28T14:03:07.746Z,2.90
2019-05-28T14:05:36.012Z,2.47
2019-05-28T14:08:04.353Z,2.70
2019-05-28T14:10:32.617Z,2.70
2019-05-28T14:13:02.380Z,2.17
2019-05-28T14:15:30.900Z,3.10
2019-05-28T14:17:59.246Z,2.30
2019-05-28T14:20:27.560Z,2.37
2019-05-28T14:22:55.856Z,2.87
2019-05-28T14:25:24.177Z,2.00
2019-05-28T14:27:52.462Z,1.87
2019-05-28T14:30:20.881Z,2.20
2019-05-28T14:32:49.141Z,2.20
2019-05-28T14:35:17.472Z,1.60
2019-05-28T14:37:45.748Z,1.80
2019-05-28T14:40:14.953Z,1.93
2019-05-28T14:42:43.208Z,2.47
2019-05-28T14:45:11.553Z,2.23
2019-05-28T14:47:39.881Z,2.20
2019-05-28T14:50:08.133Z,1.80
2019-05-28T14:52:36.579Z,2.00
2019-05-28T14:55:09.307Z,1.67
2019-05-28T14:57:37.736Z,2.13
2019-05-28T15:00:08.236Z,2.30
2019-05-28T15:02:36.526Z,1.80
2019-05-28T15:05:07.841Z,1.80
2019-05-28T15:07:36.184Z,1.47
2019-05-28T15:10:07.772Z,1.87
2019-05-28T15:12:36.021Z,1.73
2019-05-28T15:15:11.952Z,1.87
2019-05-28T15:17:40.228Z,1.80
2019-05-28T15:20:09.218Z,1.40
2019-05-28T15:22:37.697Z,1.47
2019-05-28T15:25:07.712Z,1.50
2019-05-28T15:27:35.964Z,1.43
2019-05-28T15:30:06.048Z,1.57
2019-05-28T15:32:34.310Z,1.50
2019-05-28T15:35:02.630Z,1.80
2019-05-28T15:37:30.916Z,1.20
2019-05-28T15:39:59.485Z,1.20
2019-05-28T15:42:27.735Z,1.33
2019-05-28T15:44:56.022Z,1.30
2019-05-28T15:47:24.277Z,1.40
2019-05-28T15:49:52.550Z,1.20
2019-05-28T15:52:20.828Z,1.10
2019-05-28T15:54:49.089Z,1.13
2019-05-28T15:57:17.417Z,1.10
2019-05-28T15:59:45.796Z,1.13
2019-05-28T16:02:14.057Z,1.07
2019-05-28T16:04:42.407Z,1.20
2019-05-28T16:07:10.738Z,1.10
2019-05-28T16:09:53.117Z,1.00
2019-05-28T16:12:08.971Z,1.37
2019-05-28T16:14:37.245Z,1.20
2019-05-28T16:17:05.601Z,1.00
2019-05-28T16:19:33.884Z,0.90
2019-05-28T16:22:02.202Z,1.37
2019-05-28T16:24:30.528Z,1.10
2019-05-28T16:26:58.889Z,0.97
2019-05-28T16:29:27.252Z,1.27
2019-05-28T16:31:55.608Z,0.90
2019-05-28T16:34:23.955Z,1.20
2019-05-28T16:36:52.299Z,1.20
2019-05-28T16:39:20.572Z,1.10
2019-05-28T16:41:48.894Z,1.13
2019-05-28T16:44:17.248Z,1.50
2019-05-28T16:46:45.504Z,0.87
2019-05-28T16:49:13.785Z,1.50
2019-05-28T16:51:42.115Z,1.70
2019-05-28T16:54:19.143Z,1.30
2019-05-28T16:56:40.352Z,1.23
2019-05-28T16:59:08.748Z,0.90
2019-05-28T17:01:37.080Z,1.40
2019-05-28T17:04:05.337Z,1.00
2019-05-28T17:06:33.608Z,1.00
2019-05-28T17:09:01.867Z,1.57
2019-05-28T17:11:30.125Z,1.40
2019-05-28T17:13:58.556Z,1.13
2019-05-28T17:16:26.813Z,1.50
2019-05-28T17:18:55.065Z,1.03
2019-05-28T17:21:25.492Z,0.83
2019-05-28T17:23:53.759Z,1.27
2019-05-28T17:26:22.009Z,1.10
2019-05-28T17:28:50.285Z,1.07
2019-05-28T17:31:18.536Z,1.10
2019-05-28T17:33:46.801Z,1.07
2019-05-28T17:36:15.076Z,1.23
2019-05-28T17:38:43.387Z,1.23
2019-05-28T17:41:11.646Z,0.90
2019-05-28T17:43:41.301Z,0.87
2019-05-28T17:46:09.559Z,1.37
2019-05-28T17:48:37.809Z,0.80
2019-05-28T17:51:06.079Z,1.20
2019-05-28T17:53:34.693Z,1.40
2019-05-28T17:56:03.073Z,1.00
2019-05-28T17:58:31.451Z,0.90
2019-05-28T18:00:59.710Z,0.80
2019-05-28T18:03:27.960Z,0.90
2019-05-28T18:05:56.340Z,0.83
2019-05-28T18:08:24.677Z,0.73
2019-05-28T18:11:03.759Z,0.93
2019-05-28T18:13:22.937Z,0.70
2019-05-28T18:15:51.188Z,0.90
2019-05-28T18:18:19.444Z,0.90
2019-05-28T18:20:47.724Z,0.80
2019-05-28T18:23:16.056Z,1.33
2019-05-28T18:25:44.392Z,1.10
2019-05-28T18:28:12.664Z,1.37
2019-05-28T18:30:40.923Z,0.97
2019-05-28T18:33:09.256Z,1.17
2019-05-28T18:35:37.528Z,1.53
2019-05-28T18:38:05.784Z,0.93
2019-05-28T18:40:34.051Z,1.20
2019-05-28T18:43:02.484Z,1.20
2019-05-28T18:45:30.843Z,1.03
2019-05-28T18:47:59.090Z,0.70
2019-05-28T18:50:27.392Z,0.80
2019-05-28T18:52:55.750Z,0.90
2019-05-28T18:55:24.009Z,0.90
2019-05-28T18:57:53.954Z,0.90
2019-05-28T19:00:22.255Z,0.77
2019-05-28T19:02:50.591Z,0.80
2019-05-28T19:05:19.112Z,0.70
2019-05-28T19:07:47.453Z,0.67
2019-05-28T19:10:15.712Z,0.90
2019-05-28T19:12:43.979Z,0.73
2019-05-28T19:15:12.248Z,0.70
2019-05-28T19:17:40.656Z,0.80
2019-05-28T19:20:09.005Z,0.60
2019-05-28T19:22:37.266Z,0.67
2019-05-28T19:25:11.404Z,0.80
2019-05-28T19:27:39.659Z,0.70
2019-05-28T19:30:08.120Z,0.67
2019-05-28T19:32:36.372Z,0.60
2019-05-28T19:35:08.083Z,0.70
2019-05-28T19:37:36.546Z,0.57
2019-05-28T19:40:06.520Z,0.90
2019-05-28T19:42:34.869Z,0.97
2019-05-28T19:45:04.292Z,0.83
2019-05-28T19:47:32.597Z,1.00
2019-05-28T19:50:00.913Z,0.90
2019-05-28T19:52:29.328Z,0.90
2019-05-28T19:54:57.588Z,1.60
2019-05-28T19:57:26.872Z,0.87
2019-05-28T19:59:55.109Z,1.03
2019-05-28T20:02:23.364Z,0.83
2019-05-28T20:04:51.636Z,1.27
2019-05-28T20:07:19.898Z,1.50
2019-05-28T20:09:48.158Z,0.97
2019-05-28T20:12:16.432Z,0.90
2019-05-28T20:14:44.690Z,1.00
2019-05-28T20:17:13.038Z,1.30
2019-05-28T20:19:41.316Z,0.80
2019-05-28T20:22:09.572Z,1.10
2019-05-28T20:24:37.832Z,0.90
2019-05-28T20:27:06.113Z,0.90
2019-05-28T20:29:34.383Z,0.80
2019-05-28T20:32:03.188Z,1.03
2019-05-28T20:34:31.892Z,1.00
2019-05-28T20:37:00.152Z,1.10
2019-05-28T20:39:28.435Z,0.90
2019-05-28T20:41:56.703Z,1.20
2019-05-28T20:44:24.969Z,1.00
2019-05-28T20:46:53.224Z,1.10
2019-05-28T20:49:21.492Z,1.23
2019-05-28T20:51:52.131Z,1.13
2019-05-28T20:54:19.732Z,1.00
2019-05-28T20:56:50.282Z,1.33
2019-05-28T20:59:17.995Z,1.13
2019-05-28T21:01:47.535Z,0.93
2019-05-28T21:04:16.009Z,1.17
2019-05-28T21:06:44.268Z,1.27
2019-05-28T21:09:13.074Z,1.10
2019-05-28T21:11:41.463Z,1.33
2019-05-28T21:14:09.728Z,1.03
2019-05-28T21:16:37.984Z,1.37
2019-05-28T21:19:16.852Z,1.80
2019-05-28T21:21:45.427Z,1.80
2019-05-28T21:24:13.768Z,1.67
2019-05-28T21:26:42.056Z,1.30
2019-05-28T21:29:10.391Z,1.57
2019-05-28T21:31:38.726Z,1.57
2019-05-28T21:34:08.649Z,1.73
2019-05-28T21:36:36.987Z,1.40
2019-05-28T21:39:07.287Z,1.20
2019-05-28T21:41:35.562Z,1.60
2019-05-28T21:44:04.627Z,1.70
2019-05-28T21:46:32.880Z,1.20
2019-05-28T21:49:01.237Z,1.30
2019-05-28T21:51:29.491Z,2.80
2019-05-28T21:53:58.740Z,1.77
2019-05-28T21:56:27.292Z,1.37
2019-05-28T21:58:55.550Z,1.57
2019-05-28T22:01:26.012Z,1.63
2019-05-28T22:03:55.218Z,1.80
2019-05-28T22:06:23.621Z,1.93
2019-05-28T22:08:51.894Z,1.90
2019-05-28T22:11:20.327Z,1.80
2019-05-28T22:13:48.583Z,1.70
2019-05-28T22:16:16.842Z,1.50
2019-05-28T22:18:45.119Z,1.90
2019-05-28T22:21:13.371Z,2.03
2019-05-28T22:23:41.724Z,1.90
2019-05-28T22:26:10.048Z,1.73
2019-05-28T22:28:38.387Z,1.50
2019-05-28T22:31:06.644Z,2.13
2019-05-28T22:33:34.929Z,1.80
2019-05-28T22:36:03.493Z,2.00
2019-05-28T22:38:31.912Z,2.10
2019-05-28T22:41:00.423Z,1.87
2019-05-28T22:43:31.833Z,2.23
2019-05-28T22:45:59.214Z,2.10
2019-05-28T22:48:27.591Z,2.20
2019-05-28T22:50:55.855Z,1.80
2019-05-28T22:53:24.108Z,2.20
2019-05-28T22:55:52.469Z,2.27
2019-05-28T22:58:20.726Z,2.40
2019-05-28T23:00:48.974Z,2.30
2019-05-28T23:03:17.252Z,2.23
2019-05-28T23:05:45.504Z,2.87
2019-05-28T23:08:13.751Z,2.60
2019-05-28T23:10:42.336Z,2.90
2019-05-28T23:13:11.237Z,2.50
2019-05-28T23:15:39.726Z,2.90
2019-05-28T23:18:09.306Z,2.07
2019-05-28T23:20:38.035Z,2.60
2019-05-28T23:23:07.311Z,2.50
2019-05-28T23:25:35.835Z,2.97
2019-05-28T23:28:04.094Z,2.67
2019-05-28T23:30:32.349Z,2.90
2019-05-28T23:33:00.635Z,2.90
2019-05-28T23:35:28.953Z,3.20
2019-05-28T23:37:57.282Z,2.60
2019-05-28T23:40:25.548Z,2.47
2019-05-28T23:42:53.810Z,2.40
2019-05-28T23:45:22.085Z,2.90
2019-05-28T23:47:50.406Z,2.80
2019-05-28T23:50:18.742Z,2.50
2019-05-28T23:52:48.424Z,2.70
2019-05-28T23:55:18.002Z,2.53
2019-05-28T23:57:48.660Z,2.80
